Check out our new PWSWeather beta!
PWSweather.com
Personal Weather Stations
Station Observations
WD4JKH
Forsyth, GA 31029

Forsyth, GA 31029

Lat: 33.033225, Lon: -83.927995

Elevation: 709

Station Type: Davis Vantage VUE

High Low Average
Temperature 58.3°F14.6°C 41.5°F5.3°C 53.0°F11.7°C
Dew Point 57.5°F14.2°C 38.2°F3.4°C 48.4°F9.1°C
Winds 5.9 mph 9.5 kmh Calm Calm 2.0 mph WSW3.2 kmh WSW
Wind Gusts 14.0 mph22.5 kmh 1.0 mph1.6 kmh 7.0 mph11.3 kmh
Humidity 98% 71% 85%
Pressure 30.25 in1024.4 mb 30.06 in1017.9 mb -
Precipitation 0.11 in2.8 mm - -
Hour Temp Dew Point Humidity Winds Wind Gusts Pressure Precip Precip Rate Daily Precip Total
12:02 AM 58.2°F14.6°C 57.3°F14.1°C 97% 1.3 mph NNW2.1 kmh NNW 5.0 mph8.0 kmh 30.11 in1019.6 mb 0.07 in1.8 mm 2.10 in53.3 mm 0.07 in1.8 mm
12:08 AM 58.2°F14.6°C 57.3°F14.1°C 97% 1.3 mph NNE2.1 kmh NNE 5.0 mph8.0 kmh 30.10 in1019.3 mb 0.06 in1.5 mm 0.00 in0.0 mm 0.07 in1.8 mm
12:13 AM 58.2°F14.6°C 57.3°F14.1°C 97% 1.4 mph NE2.3 kmh NE 3.0 mph4.8 kmh 30.09 in1019.0 mb 0.07 in1.8 mm 0.12 in3.0 mm 0.02 in0.5 mm
12:18 AM 58.2°F14.6°C 57.3°F14.1°C 97% 1.2 mph NNE1.9 kmh NNE 2.0 mph3.2 kmh 30.09 in1019.0 mb 0.08 in2.0 mm 0.12 in3.0 mm 0.04 in1.0 mm
12:23 AM 58.1°F14.5°C 57.3°F14.1°C 97% 1.3 mph NE2.1 kmh NE 2.0 mph3.2 kmh 30.09 in1019.0 mb 0.08 in2.0 mm 0.00 in0.0 mm 0.05 in1.3 mm
12:28 AM 58.1°F14.5°C 57.3°F14.1°C 97% Calm Calm 2.0 mph3.2 kmh 30.09 in1019.0 mb 0.10 in2.5 mm 0.24 in6.1 mm 0.07 in1.8 mm
12:33 AM 58.1°F14.5°C 57.2°F14.0°C 97% 1.7 mph NE2.7 kmh NE 2.0 mph3.2 kmh 30.08 in1018.6 mb 0.10 in2.5 mm 0.00 in0.0 mm 0.08 in2.0 mm
12:39 AM 58.1°F14.5°C 57.5°F14.2°C 98% Calm Calm 2.0 mph3.2 kmh 30.08 in1018.6 mb 0.10 in2.5 mm 0.00 in0.0 mm 0.08 in2.0 mm
12:44 AM 58.1°F14.5°C 57.5°F14.2°C 98% 1.6 mph NE2.6 kmh NE 3.0 mph4.8 kmh 30.08 in1018.6 mb 0.10 in2.5 mm 0.00 in0.0 mm 0.09 in2.3 mm
12:49 AM 58.1°F14.5°C 57.5°F14.2°C 98% 1.0 mph NNE1.6 kmh NNE 3.0 mph4.8 kmh 30.08 in1018.6 mb 0.10 in2.5 mm 0.00 in0.0 mm 0.09 in2.3 mm
12:54 AM 58.0°F14.4°C 57.4°F14.1°C 98% 1.0 mph NNE1.6 kmh NNE 3.0 mph4.8 kmh 30.08 in1018.6 mb 0.10 in2.5 mm 0.00 in0.0 mm 0.09 in2.3 mm
12:59 AM 58.0°F14.4°C 57.4°F14.1°C 98% Calm Calm 3.0 mph4.8 kmh 30.08 in1018.6 mb 0.10 in2.5 mm 0.00 in0.0 mm 0.09 in2.3 mm
01:04 AM 58.0°F14.4°C 57.4°F14.1°C 98% 1.2 mph NNW1.9 kmh NNW 2.0 mph3.2 kmh 30.08 in1018.6 mb 0.09 in2.3 mm 0.00 in0.0 mm 0.09 in2.3 mm
01:10 AM 58.0°F14.4°C 57.4°F14.1°C 98% 1.0 mph NNW1.6 kmh NNW 2.0 mph3.2 kmh 30.07 in1018.3 mb 0.08 in2.0 mm 0.00 in0.0 mm 0.09 in2.3 mm
01:15 AM 57.9°F14.4°C 57.3°F14.1°C 98% Calm Calm 2.0 mph3.2 kmh 30.07 in1018.3 mb 0.07 in1.8 mm 0.00 in0.0 mm 0.10 in2.5 mm
01:20 AM 57.9°F14.4°C 57.3°F14.1°C 98% 1.0 mph NW1.6 kmh NW 2.0 mph3.2 kmh 30.07 in1018.3 mb 0.06 in1.5 mm 0.00 in0.0 mm 0.10 in2.5 mm
01:25 AM 57.9°F14.4°C 57.3°F14.1°C 98% 1.0 mph NW1.6 kmh NW 2.0 mph3.2 kmh 30.07 in1018.3 mb 0.04 in1.0 mm 0.00 in0.0 mm 0.10 in2.5 mm
01:30 AM 57.9°F14.4°C 57.3°F14.1°C 98% 1.1 mph NW1.8 kmh NW 2.0 mph3.2 kmh 30.07 in1018.3 mb 0.03 in0.8 mm 0.00 in0.0 mm 0.10 in2.5 mm
01:35 AM 57.9°F14.4°C 57.3°F14.1°C 98% 1.0 mph WNW1.6 kmh WNW 2.0 mph3.2 kmh 30.07 in1018.3 mb 0.02 in0.5 mm 0.00 in0.0 mm 0.10 in2.5 mm
01:40 AM 57.9°F14.4°C 57.3°F14.1°C 98% Calm Calm 2.0 mph3.2 kmh 30.07 in1018.3 mb 0.02 in0.5 mm 0.00 in0.0 mm 0.10 in2.5 mm
01:44 AM 57.8°F14.3°C 57.2°F14.0°C 98% 1.3 mph NNW2.1 kmh NNW 2.0 mph3.2 kmh 30.07 in1018.3 mb 0.01 in0.3 mm 0.00 in0.0 mm 0.10 in2.5 mm
01:50 AM 57.8°F14.3°C 57.2°F14.0°C 98% 1.0 mph W1.6 kmh W 2.0 mph3.2 kmh 30.07 in1018.3 mb 0.02 in0.5 mm 0.10 in2.5 mm 0.11 in2.8 mm
01:55 AM 57.8°F14.3°C 57.2°F14.0°C 98% 1.0 mph WNW1.6 kmh WNW 2.0 mph3.2 kmh 30.06 in1017.9 mb 0.02 in0.5 mm 0.00 in0.0 mm 0.11 in2.8 mm
02:00 AM 57.8°F14.3°C 57.2°F14.0°C 98% 1.0 mph WNW1.6 kmh WNW 2.0 mph3.2 kmh 30.06 in1017.9 mb 0.02 in0.5 mm 0.00 in0.0 mm 0.11 in2.8 mm
02:05 AM 57.8°F14.3°C 57.2°F14.0°C 98% 1.0 mph NW1.6 kmh NW 2.0 mph3.2 kmh 30.06 in1017.9 mb 0.02 in0.5 mm 0.00 in0.0 mm 0.11 in2.8 mm
02:10 AM 57.8°F14.3°C 57.2°F14.0°C 98% 1.4 mph W2.3 kmh W 2.0 mph3.2 kmh 30.07 in1018.3 mb 0.02 in0.5 mm 0.00 in0.0 mm 0.11 in2.8 mm
02:15 AM 57.7°F14.3°C 57.1°F13.9°C 98% 1.4 mph W2.3 kmh W 4.0 mph6.4 kmh 30.07 in1018.3 mb 0.01 in0.3 mm 0.00 in0.0 mm 0.11 in2.8 mm
02:21 AM 57.7°F14.3°C 57.1°F13.9°C 98% 1.9 mph WNW3.1 kmh WNW 4.0 mph6.4 kmh 30.07 in1018.3 mb 0.01 in0.3 mm 0.00 in0.0 mm 0.11 in2.8 mm
02:26 AM 57.6°F14.2°C 57.0°F13.9°C 98% 1.8 mph NW2.9 kmh NW 4.0 mph6.4 kmh 30.07 in1018.3 mb 0.01 in0.3 mm 0.00 in0.0 mm 0.11 in2.8 mm
02:31 AM 57.6°F14.2°C 57.0°F13.9°C 98% 1.1 mph WNW1.8 kmh WNW 4.0 mph6.4 kmh 30.07 in1018.3 mb 0.01 in0.3 mm 0.00 in0.0 mm 0.11 in2.8 mm
02:36 AM 57.6°F14.2°C 57.0°F13.9°C 98% 1.2 mph NW1.9 kmh NW 4.0 mph6.4 kmh 30.07 in1018.3 mb 0.01 in0.3 mm 0.00 in0.0 mm 0.11 in2.8 mm
02:41 AM 57.5°F14.2°C 56.9°F13.8°C 98% 2.4 mph NW3.9 kmh NW 6.0 mph9.7 kmh 30.07 in1018.3 mb 0.01 in0.3 mm 0.00 in0.0 mm 0.11 in2.8 mm
02:46 AM 57.5°F14.2°C 56.9°F13.8°C 98% 1.4 mph WNW2.3 kmh WNW 6.0 mph9.7 kmh 30.08 in1018.6 mb 0.01 in0.3 mm 0.00 in0.0 mm 0.11 in2.8 mm
02:51 AM 57.5°F14.2°C 56.9°F13.8°C 98% 1.2 mph NW1.9 kmh NW 6.0 mph9.7 kmh 30.08 in1018.6 mb 0.00 in0.0 mm 0.00 in0.0 mm 0.11 in2.8 mm
02:57 AM 57.5°F14.2°C 56.9°F13.8°C 98% 1.9 mph NW3.1 kmh NW 6.0 mph9.7 kmh 30.08 in1018.6 mb 0.00 in0.0 mm 0.00 in0.0 mm 0.11 in2.8 mm
03:02 AM 57.5°F14.2°C 56.9°F13.8°C 98% 1.5 mph NW2.4 kmh NW 6.0 mph9.7 kmh 30.08 in1018.6 mb 0.00 in0.0 mm 0.00 in0.0 mm 0.11 in2.8 mm
03:07 AM 57.4°F14.1°C 56.8°F13.8°C 98% 1.8 mph NW2.9 kmh NW 6.0 mph9.7 kmh 30.08 in1018.6 mb 0.00 in0.0 mm 0.00 in0.0 mm 0.11 in2.8 mm
03:12 AM 57.3°F14.1°C 56.7°F13.7°C 98% 3.1 mph NW5.0 kmh NW 6.0 mph9.7 kmh 30.08 in1018.6 mb 0.00 in0.0 mm 0.00 in0.0 mm 0.11 in2.8 mm
03:17 AM 57.2°F14.0°C 56.6°F13.7°C 98% 3.3 mph NW5.3 kmh NW 6.0 mph9.7 kmh 30.07 in1018.3 mb 0.00 in0.0 mm 0.00 in0.0 mm 0.11 in2.8 mm
03:22 AM 57.1°F13.9°C 56.5°F13.6°C 98% 1.3 mph NW2.1 kmh NW 6.0 mph9.7 kmh 30.07 in1018.3 mb 0.00 in0.0 mm 0.00 in0.0 mm 0.11 in2.8 mm
03:27 AM 57.0°F13.9°C 56.4°F13.6°C 98% 2.1 mph NW3.4 kmh NW 7.0 mph11.3 kmh 30.08 in1018.6 mb 0.00 in0.0 mm 0.00 in0.0 mm 0.11 in2.8 mm
03:33 AM 56.8°F13.8°C 55.9°F13.3°C 97% 4.5 mph NW7.2 kmh NW 11.0 mph17.7 kmh 30.08 in1018.6 mb 0.00 in0.0 mm 0.00 in0.0 mm 0.11 in2.8 mm
03:38 AM 56.7°F13.7°C 55.9°F13.3°C 97% 2.7 mph NW4.3 kmh NW 11.0 mph17.7 kmh 30.08 in1018.6 mb 0.00 in0.0 mm 0.00 in0.0 mm 0.11 in2.8 mm
03:43 AM 56.6°F13.7°C 55.8°F13.2°C 97% 3.1 mph NW5.0 kmh NW 11.0 mph17.7 kmh 30.08 in1018.6 mb 0.00 in0.0 mm 0.00 in0.0 mm 0.11 in2.8 mm
03:48 AM 56.4°F13.6°C 55.5°F13.1°C 97% 3.6 mph NW5.8 kmh NW 11.0 mph17.7 kmh 30.08 in1018.6 mb 0.00 in0.0 mm 0.00 in0.0 mm 0.11 in2.8 mm
03:53 AM 56.3°F13.5°C 55.4°F13.0°C 97% 4.7 mph NW7.6 kmh NW 11.0 mph17.7 kmh 30.08 in1018.6 mb 0.00 in0.0 mm 0.00 in0.0 mm 0.11 in2.8 mm
03:58 AM 56.3°F13.5°C 55.5°F13.1°C 97% 2.9 mph NW4.7 kmh NW 11.0 mph17.7 kmh 30.08 in1018.6 mb 0.00 in0.0 mm 0.00 in0.0 mm 0.11 in2.8 mm
04:04 AM 56.2°F13.4°C 55.3°F12.9°C 97% 5.0 mph NW8.0 kmh NW 11.0 mph17.7 kmh 30.08 in1018.6 mb 0.00 in0.0 mm 0.00 in0.0 mm 0.11 in2.8 mm
04:09 AM 56.1°F13.4°C 55.2°F12.9°C 97% 2.9 mph NW4.7 kmh NW 11.0 mph17.7 kmh 30.08 in1018.6 mb 0.00 in0.0 mm 0.00 in0.0 mm 0.11 in2.8 mm
04:14 AM 56.0°F13.3°C 54.8°F12.7°C 96% 3.7 mph NW6.0 kmh NW 11.0 mph17.7 kmh 30.08 in1018.6 mb 0.00 in0.0 mm 0.00 in0.0 mm 0.11 in2.8 mm
04:19 AM 55.8°F13.2°C 54.6°F12.6°C 96% 3.0 mph NW4.8 kmh NW 11.0 mph17.7 kmh 30.08 in1018.6 mb 0.00 in0.0 mm 0.00 in0.0 mm 0.11 in2.8 mm
04:24 AM 55.6°F13.1°C 54.4°F12.4°C 96% 3.6 mph NNW5.8 kmh NNW 11.0 mph17.7 kmh 30.08 in1018.6 mb 0.00 in0.0 mm 0.00 in0.0 mm 0.11 in2.8 mm
04:29 AM 55.5°F13.1°C 54.4°F12.4°C 96% 4.1 mph NW6.6 kmh NW 10.0 mph16.1 kmh 30.08 in1018.6 mb 0.00 in0.0 mm 0.00 in0.0 mm 0.11 in2.8 mm
04:34 AM 55.4°F13.0°C 54.2°F12.3°C 96% 4.6 mph NW7.4 kmh NW 10.0 mph16.1 kmh 30.08 in1018.6 mb 0.00 in0.0 mm 0.00 in0.0 mm 0.11 in2.8 mm
04:40 AM 55.3°F12.9°C 54.1°F12.3°C 96% 3.9 mph N6.3 kmh N 11.0 mph17.7 kmh 30.09 in1019.0 mb 0.00 in0.0 mm 0.00 in0.0 mm 0.11 in2.8 mm
04:45 AM 55.0°F12.8°C 53.6°F12.0°C 95% 5.9 mph NW9.5 kmh NW 12.0 mph19.3 kmh 30.08 in1018.6 mb 0.00 in0.0 mm 0.00 in0.0 mm 0.11 in2.8 mm
04:50 AM 54.9°F12.7°C 53.5°F11.9°C 95% 3.1 mph NNW5.0 kmh NNW 12.0 mph19.3 kmh 30.09 in1019.0 mb 0.00 in0.0 mm 0.00 in0.0 mm 0.11 in2.8 mm
04:55 AM 54.9°F12.7°C 53.5°F11.9°C 95% 2.3 mph NNW3.7 kmh NNW 12.0 mph19.3 kmh 30.09 in1019.0 mb 0.00 in0.0 mm 0.00 in0.0 mm 0.11 in2.8 mm
05:00 AM 54.7°F12.6°C 53.3°F11.8°C 95% 3.7 mph NNW6.0 kmh NNW 14.0 mph22.5 kmh 30.09 in1019.0 mb 0.00 in0.0 mm 0.00 in0.0 mm 0.11 in2.8 mm
05:05 AM 54.5°F12.5°C 53.1°F11.7°C 95% 4.0 mph N6.4 kmh N 14.0 mph22.5 kmh 30.09 in1019.0 mb 0.00 in0.0 mm 0.00 in0.0 mm 0.11 in2.8 mm
05:10 AM 54.3°F12.4°C 52.9°F11.6°C 95% 1.9 mph NNW3.1 kmh NNW 14.0 mph22.5 kmh 30.10 in1019.3 mb 0.00 in0.0 mm 0.00 in0.0 mm 0.11 in2.8 mm
05:16 AM 54.1°F12.3°C 52.7°F11.5°C 95% 3.8 mph NW6.1 kmh NW 14.0 mph22.5 kmh 30.09 in1019.0 mb 0.00 in0.0 mm 0.00 in0.0 mm 0.11 in2.8 mm
05:21 AM 54.0°F12.2°C 52.6°F11.4°C 95% 3.0 mph NW4.8 kmh NW 13.0 mph20.9 kmh 30.10 in1019.3 mb 0.00 in0.0 mm 0.00 in0.0 mm 0.11 in2.8 mm
05:26 AM 53.9°F12.2°C 52.5°F11.4°C 95% 2.4 mph NNW3.9 kmh NNW 12.0 mph19.3 kmh 30.10 in1019.3 mb 0.00 in0.0 mm 0.00 in0.0 mm 0.11 in2.8 mm
05:31 AM 53.7°F12.1°C 52.3°F11.3°C 95% 2.4 mph NNW3.9 kmh NNW 12.0 mph19.3 kmh 30.10 in1019.3 mb 0.00 in0.0 mm 0.00 in0.0 mm 0.11 in2.8 mm
05:36 AM 53.6°F12.0°C 52.2°F11.2°C 95% 2.8 mph NW4.5 kmh NW 10.0 mph16.1 kmh 30.10 in1019.3 mb 0.00 in0.0 mm 0.00 in0.0 mm 0.11 in2.8 mm
05:41 AM 53.5°F11.9°C 52.1°F11.2°C 95% 1.3 mph NW2.1 kmh NW 10.0 mph16.1 kmh 30.10 in1019.3 mb 0.00 in0.0 mm 0.00 in0.0 mm 0.11 in2.8 mm
05:47 AM 53.3°F11.8°C 51.9°F11.1°C 95% 3.2 mph N5.1 kmh N 10.0 mph16.1 kmh 30.11 in1019.6 mb 0.00 in0.0 mm 0.00 in0.0 mm 0.11 in2.8 mm
05:52 AM 53.2°F11.8°C 51.8°F11.0°C 95% 1.4 mph NW2.3 kmh NW 9.0 mph14.5 kmh 30.11 in1019.6 mb 0.00 in0.0 mm 0.00 in0.0 mm 0.11 in2.8 mm
05:57 AM 53.1°F11.7°C 51.7°F10.9°C 95% 2.8 mph NNW4.5 kmh NNW 9.0 mph14.5 kmh 30.12 in1020.0 mb 0.00 in0.0 mm 0.00 in0.0 mm 0.11 in2.8 mm
06:02 AM 52.9°F11.6°C 51.5°F10.8°C 95% 1.9 mph N3.1 kmh N 9.0 mph14.5 kmh 30.12 in1020.0 mb 0.00 in0.0 mm 0.00 in0.0 mm 0.11 in2.8 mm
06:07 AM 52.7°F11.5°C 51.3°F10.7°C 95% 5.6 mph NNW9.0 kmh NNW 11.0 mph17.7 kmh 30.12 in1020.0 mb 0.00 in0.0 mm 0.00 in0.0 mm 0.11 in2.8 mm
06:12 AM 52.5°F11.4°C 51.1°F10.6°C 95% 1.8 mph N2.9 kmh N 11.0 mph17.7 kmh 30.12 in1020.0 mb 0.00 in0.0 mm 0.00 in0.0 mm 0.11 in2.8 mm
06:17 AM 52.3°F11.3°C 50.6°F10.3°C 94% 2.0 mph N3.2 kmh N 11.0 mph17.7 kmh 30.12 in1020.0 mb 0.00 in0.0 mm 0.00 in0.0 mm 0.11 in2.8 mm
06:23 AM 52.2°F11.2°C 50.8°F10.4°C 95% 1.8 mph NNW2.9 kmh NNW 11.0 mph17.7 kmh 30.13 in1020.3 mb 0.00 in0.0 mm 0.00 in0.0 mm 0.11 in2.8 mm
06:28 AM 52.0°F11.1°C 50.6°F10.3°C 95% 4.3 mph N6.9 kmh N 9.0 mph14.5 kmh 30.13 in1020.3 mb 0.00 in0.0 mm 0.00 in0.0 mm 0.11 in2.8 mm
06:33 AM 51.9°F11.1°C 50.2°F10.1°C 94% 3.0 mph NNW4.8 kmh NNW 11.0 mph17.7 kmh 30.13 in1020.3 mb 0.00 in0.0 mm 0.00 in0.0 mm 0.11 in2.8 mm
06:38 AM 51.7°F10.9°C 50.0°F10.0°C 94% 3.5 mph N5.6 kmh N 11.0 mph17.7 kmh 30.14 in1020.7 mb 0.00 in0.0 mm 0.00 in0.0 mm 0.11 in2.8 mm
06:43 AM 51.5°F10.8°C 49.5°F9.7°C 93% 2.3 mph 3.7 kmh 11.0 mph17.7 kmh 30.13 in1020.3 mb 0.00 in0.0 mm 0.00 in0.0 mm 0.11 in2.8 mm
06:48 AM 51.3°F10.7°C 49.3°F9.6°C 93% 3.7 mph NW6.0 kmh NW 11.0 mph17.7 kmh 30.14 in1020.7 mb 0.00 in0.0 mm 0.00 in0.0 mm 0.11 in2.8 mm
06:54 AM 51.2°F10.7°C 49.2°F9.6°C 93% 4.2 mph N6.8 kmh N 11.0 mph17.7 kmh 30.14 in1020.7 mb 0.00 in0.0 mm 0.00 in0.0 mm 0.11 in2.8 mm
06:59 AM 51.0°F10.6°C 49.0°F9.4°C 93% 3.7 mph NNW6.0 kmh NNW 11.0 mph17.7 kmh 30.14 in1020.7 mb 0.00 in0.0 mm 0.00 in0.0 mm 0.11 in2.8 mm
07:04 AM 50.9°F10.5°C 48.9°F9.4°C 93% 2.3 mph NNW3.7 kmh NNW 10.0 mph16.1 kmh 30.14 in1020.7 mb 0.00 in0.0 mm 0.00 in0.0 mm 0.11 in2.8 mm
07:09 AM 50.7°F10.4°C 48.7°F9.3°C 93% 1.7 mph N2.7 kmh N 10.0 mph16.1 kmh 30.14 in1020.7 mb 0.00 in0.0 mm 0.00 in0.0 mm 0.11 in2.8 mm
07:14 AM 50.6°F10.3°C 48.6°F9.2°C 93% 1.8 mph NNE2.9 kmh NNE 10.0 mph16.1 kmh 30.15 in1021.0 mb 0.00 in0.0 mm 0.00 in0.0 mm 0.11 in2.8 mm
07:19 AM 50.4°F10.2°C 48.4°F9.1°C 93% 2.6 mph NNW4.2 kmh NNW 10.0 mph16.1 kmh 30.15 in1021.0 mb 0.00 in0.0 mm 0.00 in0.0 mm 0.11 in2.8 mm
07:24 AM 50.3°F10.2°C 48.3°F9.1°C 93% 1.9 mph N3.1 kmh N 10.0 mph16.1 kmh 30.15 in1021.0 mb 0.00 in0.0 mm 0.00 in0.0 mm 0.11 in2.8 mm
07:30 AM 50.2°F10.1°C 48.2°F9.0°C 93% 3.5 mph NNW5.6 kmh NNW 10.0 mph16.1 kmh 30.15 in1021.0 mb 0.00 in0.0 mm 0.00 in0.0 mm 0.11 in2.8 mm
07:35 AM 50.1°F10.1°C 48.2°F9.0°C 93% 3.6 mph N5.8 kmh N 14.0 mph22.5 kmh 30.16 in1021.3 mb 0.00 in0.0 mm 0.00 in0.0 mm 0.11 in2.8 mm
07:40 AM 50.0°F10.0°C 47.8°F8.8°C 92% 3.0 mph N4.8 kmh N 14.0 mph22.5 kmh 30.16 in1021.3 mb 0.00 in0.0 mm 0.00 in0.0 mm 0.11 in2.8 mm
07:44 AM 49.9°F9.9°C 47.6°F8.7°C 92% 2.6 mph N4.2 kmh N 14.0 mph22.5 kmh 30.16 in1021.3 mb 0.00 in0.0 mm 0.00 in0.0 mm 0.11 in2.8 mm
07:49 AM 49.9°F9.9°C 47.6°F8.7°C 92% 2.3 mph NNW3.7 kmh NNW 10.0 mph16.1 kmh 30.16 in1021.3 mb 0.00 in0.0 mm 0.00 in0.0 mm 0.11 in2.8 mm
07:54 AM 49.9°F9.9°C 47.6°F8.7°C 92% 2.9 mph NNW4.7 kmh NNW 8.0 mph12.9 kmh 30.16 in1021.3 mb 0.00 in0.0 mm 0.00 in0.0 mm 0.11 in2.8 mm
07:59 AM 49.9°F9.9°C 47.6°F8.7°C 92% 2.4 mph NNW3.9 kmh NNW 9.0 mph14.5 kmh 30.16 in1021.3 mb 0.00 in0.0 mm 0.00 in0.0 mm 0.11 in2.8 mm
08:04 AM 50.2°F10.1°C 47.9°F8.8°C 92% 2.6 mph NNE4.2 kmh NNE 9.0 mph14.5 kmh 30.17 in1021.7 mb 0.00 in0.0 mm 0.00 in0.0 mm 0.11 in2.8 mm
08:10 AM 50.6°F10.3°C 48.4°F9.1°C 92% 3.6 mph N5.8 kmh N 9.0 mph14.5 kmh 30.17 in1021.7 mb 0.00 in0.0 mm 0.00 in0.0 mm 0.11 in2.8 mm
08:15 AM 50.6°F10.3°C 48.0°F8.9°C 91% 1.5 mph N2.4 kmh N 11.0 mph17.7 kmh 30.17 in1021.7 mb 0.00 in0.0 mm 0.00 in0.0 mm 0.11 in2.8 mm
08:20 AM 50.6°F10.3°C 48.0°F8.9°C 91% 2.4 mph NW3.9 kmh NW 11.0 mph17.7 kmh 30.17 in1021.7 mb 0.00 in0.0 mm 0.00 in0.0 mm 0.11 in2.8 mm
08:25 AM 50.5°F10.3°C 47.9°F8.8°C 91% 1.9 mph N3.1 kmh N 11.0 mph17.7 kmh 30.17 in1021.7 mb 0.00 in0.0 mm 0.00 in0.0 mm 0.11 in2.8 mm
08:30 AM 50.4°F10.2°C 47.8°F8.8°C 91% 1.4 mph NW2.3 kmh NW 8.0 mph12.9 kmh 30.17 in1021.7 mb 0.00 in0.0 mm 0.00 in0.0 mm 0.11 in2.8 mm
08:35 AM 50.3°F10.2°C 47.7°F8.7°C 91% 2.4 mph NW3.9 kmh NW 6.0 mph9.7 kmh 30.17 in1021.7 mb 0.00 in0.0 mm 0.00 in0.0 mm 0.11 in2.8 mm
08:41 AM 50.1°F10.1°C 47.3°F8.5°C 90% 3.4 mph NNW5.5 kmh NNW 7.0 mph11.3 kmh 30.17 in1021.7 mb 0.00 in0.0 mm 0.00 in0.0 mm 0.11 in2.8 mm
08:46 AM 49.9°F9.9°C 46.8°F8.2°C 89% 3.6 mph N5.8 kmh N 10.0 mph16.1 kmh 30.18 in1022.0 mb 0.00 in0.0 mm 0.00 in0.0 mm 0.11 in2.8 mm
08:51 AM 49.8°F9.9°C 46.7°F8.2°C 89% 4.3 mph N6.9 kmh N 11.0 mph17.7 kmh 30.18 in1022.0 mb 0.00 in0.0 mm 0.00 in0.0 mm 0.11 in2.8 mm
08:56 AM 49.7°F9.8°C 46.3°F7.9°C 88% 4.2 mph N6.8 kmh N 11.0 mph17.7 kmh 30.18 in1022.0 mb 0.00 in0.0 mm 0.00 in0.0 mm 0.11 in2.8 mm
09:01 AM 49.7°F9.8°C 46.3°F7.9°C 88% 5.0 mph NNW8.0 kmh NNW 12.0 mph19.3 kmh 30.18 in1022.0 mb 0.00 in0.0 mm 0.00 in0.0 mm 0.11 in2.8 mm
09:06 AM 49.9°F9.9°C 46.8°F8.2°C 89% 2.0 mph N3.2 kmh N 12.0 mph19.3 kmh 30.19 in1022.4 mb 0.00 in0.0 mm 0.00 in0.0 mm 0.11 in2.8 mm
09:11 AM 50.0°F10.0°C 46.6°F8.1°C 88% 3.1 mph NW5.0 kmh NW 12.0 mph19.3 kmh 30.19 in1022.4 mb 0.00 in0.0 mm 0.00 in0.0 mm 0.11 in2.8 mm
09:17 AM 50.1°F10.1°C 46.4°F8.0°C 87% 2.9 mph N4.7 kmh N 12.0 mph19.3 kmh 30.20 in1022.7 mb 0.00 in0.0 mm 0.00 in0.0 mm 0.11 in2.8 mm
09:22 AM 50.3°F10.2°C 46.6°F8.1°C 87% 2.3 mph NNW3.7 kmh NNW 10.0 mph16.1 kmh 30.20 in1022.7 mb 0.00 in0.0 mm 0.00 in0.0 mm 0.11 in2.8 mm
09:29 AM 50.7°F10.4°C 46.3°F7.9°C 85% 3.8 mph 6.1 kmh 9.0 mph14.5 kmh 30.20 in1022.7 mb 0.00 in0.0 mm 0.00 in0.0 mm 0.11 in2.8 mm
09:34 AM 50.6°F10.3°C 46.3°F7.9°C 85% 2.7 mph N4.3 kmh N 9.0 mph14.5 kmh 30.20 in1022.7 mb 0.00 in0.0 mm 0.00 in0.0 mm 0.11 in2.8 mm
09:39 AM 50.8°F10.4°C 46.4°F8.0°C 85% 2.8 mph NNW4.5 kmh NNW 9.0 mph14.5 kmh 30.20 in1022.7 mb 0.00 in0.0 mm 0.00 in0.0 mm 0.11 in2.8 mm
09:44 AM 50.8°F10.4°C 46.1°F7.8°C 84% 2.3 mph NW3.7 kmh NW 9.0 mph14.5 kmh 30.20 in1022.7 mb 0.00 in0.0 mm 0.00 in0.0 mm 0.11 in2.8 mm
09:49 AM 50.8°F10.4°C 46.1°F7.8°C 84% 2.9 mph NW4.7 kmh NW 7.0 mph11.3 kmh 30.20 in1022.7 mb 0.00 in0.0 mm 0.00 in0.0 mm 0.11 in2.8 mm
09:54 AM 51.0°F10.6°C 46.6°F8.1°C 85% 1.6 mph NNW2.6 kmh NNW 7.0 mph11.3 kmh 30.20 in1022.7 mb 0.00 in0.0 mm 0.00 in0.0 mm 0.11 in2.8 mm
09:59 AM 51.2°F10.7°C 46.2°F7.9°C 83% 3.6 mph NNW5.8 kmh NNW 7.0 mph11.3 kmh 30.21 in1023.0 mb 0.00 in0.0 mm 0.00 in0.0 mm 0.11 in2.8 mm
10:04 AM 51.3°F10.7°C 46.6°F8.1°C 84% 2.6 mph NNW4.2 kmh NNW 7.0 mph11.3 kmh 30.21 in1023.0 mb 0.00 in0.0 mm 0.00 in0.0 mm 0.11 in2.8 mm
10:09 AM 51.6°F10.9°C 46.6°F8.1°C 83% 3.2 mph NNE5.1 kmh NNE 8.0 mph12.9 kmh 30.21 in1023.0 mb 0.00 in0.0 mm 0.00 in0.0 mm 0.11 in2.8 mm
10:14 AM 52.0°F11.1°C 47.0°F8.3°C 83% 1.8 mph NE2.9 kmh NE 8.0 mph12.9 kmh 30.20 in1022.7 mb 0.00 in0.0 mm 0.00 in0.0 mm 0.11 in2.8 mm
10:19 AM 52.6°F11.4°C 47.3°F8.5°C 82% 2.3 mph NNE3.7 kmh NNE 8.0 mph12.9 kmh 30.20 in1022.7 mb 0.00 in0.0 mm 0.00 in0.0 mm 0.11 in2.8 mm
10:24 AM 52.5°F11.4°C 46.5°F8.1°C 80% 3.9 mph NNW6.3 kmh NNW 9.0 mph14.5 kmh 30.20 in1022.7 mb 0.00 in0.0 mm 0.00 in0.0 mm 0.11 in2.8 mm
10:29 AM 52.6°F11.4°C 47.0°F8.3°C 81% 1.6 mph N2.6 kmh N 9.0 mph14.5 kmh 30.20 in1022.7 mb 0.00 in0.0 mm 0.00 in0.0 mm 0.11 in2.8 mm
10:34 AM 52.9°F11.6°C 47.3°F8.5°C 81% 2.1 mph N3.4 kmh N 9.0 mph14.5 kmh 30.20 in1022.7 mb 0.00 in0.0 mm 0.00 in0.0 mm 0.11 in2.8 mm
10:39 AM 53.1°F11.7°C 47.5°F8.6°C 81% 3.5 mph NNW5.6 kmh NNW 9.0 mph14.5 kmh 30.20 in1022.7 mb 0.00 in0.0 mm 0.00 in0.0 mm 0.11 in2.8 mm
10:44 AM 53.3°F11.8°C 47.3°F8.5°C 80% 3.1 mph NNE5.0 kmh NNE 8.0 mph12.9 kmh 30.19 in1022.4 mb 0.00 in0.0 mm 0.00 in0.0 mm 0.11 in2.8 mm
10:49 AM 53.6°F12.0°C 47.6°F8.7°C 80% 2.8 mph N4.5 kmh N 8.0 mph12.9 kmh 30.19 in1022.4 mb 0.00 in0.0 mm 0.00 in0.0 mm 0.11 in2.8 mm
10:54 AM 54.0°F12.2°C 47.7°F8.7°C 79% 2.6 mph NNE4.2 kmh NNE 8.0 mph12.9 kmh 30.19 in1022.4 mb 0.00 in0.0 mm 0.00 in0.0 mm 0.11 in2.8 mm
10:59 AM 54.5°F12.5°C 48.5°F9.2°C 80% 1.8 mph NW2.9 kmh NW 8.0 mph12.9 kmh 30.20 in1022.7 mb 0.00 in0.0 mm 0.00 in0.0 mm 0.11 in2.8 mm
11:04 AM 54.5°F12.5°C 47.5°F8.6°C 77% 2.4 mph NW3.9 kmh NW 8.0 mph12.9 kmh 30.20 in1022.7 mb 0.00 in0.0 mm 0.00 in0.0 mm 0.11 in2.8 mm
11:09 AM 54.7°F12.6°C 48.0°F8.9°C 78% 1.4 mph 2.3 kmh 8.0 mph12.9 kmh 30.20 in1022.7 mb 0.00 in0.0 mm 0.00 in0.0 mm 0.11 in2.8 mm
11:14 AM 54.9°F12.7°C 47.6°F8.7°C 76% 3.0 mph NNW4.8 kmh NNW 8.0 mph12.9 kmh 30.19 in1022.4 mb 0.00 in0.0 mm 0.00 in0.0 mm 0.11 in2.8 mm
11:19 AM 55.0°F12.8°C 47.3°F8.5°C 75% 2.6 mph 4.2 kmh 8.0 mph12.9 kmh 30.19 in1022.4 mb 0.00 in0.0 mm 0.00 in0.0 mm 0.11 in2.8 mm
11:24 AM 55.1°F12.8°C 47.8°F8.8°C 76% 2.2 mph NNE3.5 kmh NNE 6.0 mph9.7 kmh 30.19 in1022.4 mb 0.00 in0.0 mm 0.00 in0.0 mm 0.11 in2.8 mm
11:29 AM 55.5°F13.1°C 47.8°F8.8°C 75% 2.1 mph NE3.4 kmh NE 6.0 mph9.7 kmh 30.19 in1022.4 mb 0.00 in0.0 mm 0.00 in0.0 mm 0.11 in2.8 mm
11:34 AM 55.9°F13.3°C 47.8°F8.8°C 74% 2.3 mph NNE3.7 kmh NNE 7.0 mph11.3 kmh 30.19 in1022.4 mb 0.00 in0.0 mm 0.00 in0.0 mm 0.11 in2.8 mm
11:39 AM 56.1°F13.4°C 48.0°F8.9°C 74% 2.1 mph NNE3.4 kmh NNE 7.0 mph11.3 kmh 30.19 in1022.4 mb 0.00 in0.0 mm 0.00 in0.0 mm 0.11 in2.8 mm
11:44 AM 56.1°F13.4°C 47.7°F8.7°C 73% 2.6 mph NNE4.2 kmh NNE 8.0 mph12.9 kmh 30.19 in1022.4 mb 0.00 in0.0 mm 0.00 in0.0 mm 0.11 in2.8 mm
11:49 AM 56.2°F13.4°C 48.4°F9.1°C 75% 1.5 mph NNE2.4 kmh NNE 8.0 mph12.9 kmh 30.18 in1022.0 mb 0.00 in0.0 mm 0.00 in0.0 mm 0.11 in2.8 mm
11:54 AM 56.4°F13.6°C 48.3°F9.1°C 74% 1.6 mph N2.6 kmh N 8.0 mph12.9 kmh 30.18 in1022.0 mb 0.00 in0.0 mm 0.00 in0.0 mm 0.11 in2.8 mm
11:59 AM 56.4°F13.6°C 48.3°F9.1°C 74% 3.2 mph NE5.1 kmh NE 9.0 mph14.5 kmh 30.18 in1022.0 mb 0.00 in0.0 mm 0.00 in0.0 mm 0.11 in2.8 mm
12:04 PM 56.3°F13.5°C 48.1°F8.9°C 74% 2.2 mph N3.5 kmh N 9.0 mph14.5 kmh 30.18 in1022.0 mb 0.00 in0.0 mm 0.00 in0.0 mm 0.11 in2.8 mm
12:09 PM 56.4°F13.6°C 48.3°F9.1°C 74% 3.2 mph NW5.1 kmh NW 9.0 mph14.5 kmh 30.17 in1021.7 mb 0.00 in0.0 mm 0.00 in0.0 mm 0.11 in2.8 mm
12:14 PM 56.7°F13.7°C 48.6°F9.2°C 74% 3.7 mph NE6.0 kmh NE 11.0 mph17.7 kmh 30.17 in1021.7 mb 0.00 in0.0 mm 0.00 in0.0 mm 0.11 in2.8 mm
12:19 PM 56.6°F13.7°C 48.2°F9.0°C 73% 2.2 mph NW3.5 kmh NW 11.0 mph17.7 kmh 30.17 in1021.7 mb 0.00 in0.0 mm 0.00 in0.0 mm 0.11 in2.8 mm
12:24 PM 56.8°F13.8°C 49.1°F9.5°C 75% 1.8 mph NE2.9 kmh NE 11.0 mph17.7 kmh 30.17 in1021.7 mb 0.00 in0.0 mm 0.00 in0.0 mm 0.11 in2.8 mm
12:29 PM 57.1°F13.9°C 48.6°F9.2°C 73% 2.6 mph N4.2 kmh N 11.0 mph17.7 kmh 30.17 in1021.7 mb 0.00 in0.0 mm 0.00 in0.0 mm 0.11 in2.8 mm
12:34 PM 56.7°F13.7°C 48.2°F9.0°C 73% 2.2 mph NE3.5 kmh NE 6.0 mph9.7 kmh 30.16 in1021.3 mb 0.00 in0.0 mm 0.00 in0.0 mm 0.11 in2.8 mm
12:39 PM 56.8°F13.8°C 48.3°F9.1°C 73% 2.3 mph N3.7 kmh N 7.0 mph11.3 kmh 30.16 in1021.3 mb 0.00 in0.0 mm 0.00 in0.0 mm 0.11 in2.8 mm
12:44 PM 56.9°F13.8°C 48.4°F9.1°C 73% 2.2 mph NE3.5 kmh NE 7.0 mph11.3 kmh 30.16 in1021.3 mb 0.00 in0.0 mm 0.00 in0.0 mm 0.11 in2.8 mm
12:49 PM 57.3°F14.1°C 49.2°F9.6°C 74% 1.8 mph N2.9 kmh N 7.0 mph11.3 kmh 30.16 in1021.3 mb 0.00 in0.0 mm 0.00 in0.0 mm 0.11 in2.8 mm
12:54 PM 57.1°F13.9°C 48.3°F9.1°C 72% 2.8 mph NE4.5 kmh NE 7.0 mph11.3 kmh 30.16 in1021.3 mb 0.00 in0.0 mm 0.00 in0.0 mm 0.11 in2.8 mm
12:59 PM 56.8°F13.8°C 48.2°F9.0°C 73% 5.9 mph ENE9.5 kmh ENE 11.0 mph17.7 kmh 30.15 in1021.0 mb 0.00 in0.0 mm 0.00 in0.0 mm 0.11 in2.8 mm
01:04 PM 57.1°F13.9°C 49.0°F9.4°C 74% 2.0 mph N3.2 kmh N 11.0 mph17.7 kmh 30.16 in1021.3 mb 0.00 in0.0 mm 0.00 in0.0 mm 0.11 in2.8 mm
01:09 PM 57.2°F14.0°C 48.6°F9.2°C 73% 2.6 mph NNE4.2 kmh NNE 11.0 mph17.7 kmh 30.15 in1021.0 mb 0.00 in0.0 mm 0.00 in0.0 mm 0.11 in2.8 mm
01:14 PM 57.2°F14.0°C 48.7°F9.3°C 73% 3.0 mph NE4.8 kmh NE 11.0 mph17.7 kmh 30.14 in1020.7 mb 0.00 in0.0 mm 0.00 in0.0 mm 0.11 in2.8 mm
01:19 PM 57.0°F13.9°C 48.5°F9.2°C 73% 2.4 mph NE3.9 kmh NE 6.0 mph9.7 kmh 30.15 in1021.0 mb 0.00 in0.0 mm 0.00 in0.0 mm 0.11 in2.8 mm
01:24 PM 57.1°F13.9°C 48.9°F9.4°C 74% 1.6 mph N2.6 kmh N 6.0 mph9.7 kmh 30.15 in1021.0 mb 0.00 in0.0 mm 0.00 in0.0 mm 0.11 in2.8 mm
01:29 PM 57.1°F13.9°C 49.0°F9.4°C 74% 2.2 mph NE3.5 kmh NE 7.0 mph11.3 kmh 30.15 in1021.0 mb 0.00 in0.0 mm 0.00 in0.0 mm 0.11 in2.8 mm
01:34 PM 57.0°F13.9°C 48.4°F9.1°C 73% 1.4 mph N2.3 kmh N 8.0 mph12.9 kmh 30.14 in1020.7 mb 0.00 in0.0 mm 0.00 in0.0 mm 0.11 in2.8 mm
01:39 PM 57.1°F13.9°C 48.9°F9.4°C 74% 1.9 mph N3.1 kmh N 8.0 mph12.9 kmh 30.14 in1020.7 mb 0.00 in0.0 mm 0.00 in0.0 mm 0.11 in2.8 mm
01:44 PM 57.7°F14.3°C 48.7°F9.3°C 72% 2.7 mph NE4.3 kmh NE 8.0 mph12.9 kmh 30.14 in1020.7 mb 0.00 in0.0 mm 0.00 in0.0 mm 0.11 in2.8 mm
01:49 PM 57.8°F14.3°C 48.8°F9.3°C 72% 2.8 mph N4.5 kmh N 7.0 mph11.3 kmh 30.14 in1020.7 mb 0.00 in0.0 mm 0.00 in0.0 mm 0.11 in2.8 mm
01:54 PM 57.8°F14.3°C 48.8°F9.3°C 72% 2.9 mph NE4.7 kmh NE 7.0 mph11.3 kmh 30.14 in1020.7 mb 0.00 in0.0 mm 0.00 in0.0 mm 0.11 in2.8 mm
01:59 PM 57.9°F14.4°C 49.0°F9.4°C 72% 2.4 mph NNW3.9 kmh NNW 7.0 mph11.3 kmh 30.13 in1020.3 mb 0.00 in0.0 mm 0.00 in0.0 mm 0.11 in2.8 mm
02:04 PM 58.0°F14.4°C 49.1°F9.5°C 72% 2.2 mph NNW3.5 kmh NNW 7.0 mph11.3 kmh 30.13 in1020.3 mb 0.00 in0.0 mm 0.00 in0.0 mm 0.11 in2.8 mm
02:09 PM 58.3°F14.6°C 49.8°F9.9°C 73% 1.6 mph NE2.6 kmh NE 7.0 mph11.3 kmh 30.14 in1020.7 mb 0.00 in0.0 mm 0.00 in0.0 mm 0.11 in2.8 mm
02:14 PM 58.2°F14.6°C 49.7°F9.8°C 73% 1.1 mph NE1.8 kmh NE 7.0 mph11.3 kmh 30.13 in1020.3 mb 0.00 in0.0 mm 0.00 in0.0 mm 0.11 in2.8 mm
02:19 PM 58.2°F14.6°C 49.3°F9.6°C 72% 2.2 mph NE3.5 kmh NE 6.0 mph9.7 kmh 30.13 in1020.3 mb 0.00 in0.0 mm 0.00 in0.0 mm 0.11 in2.8 mm
02:24 PM 58.0°F14.4°C 49.5°F9.7°C 73% 1.2 mph NE1.9 kmh NE 6.0 mph9.7 kmh 30.13 in1020.3 mb 0.00 in0.0 mm 0.00 in0.0 mm 0.11 in2.8 mm
02:29 PM 58.1°F14.5°C 49.6°F9.8°C 73% 1.1 mph N1.8 kmh N 6.0 mph9.7 kmh 30.13 in1020.3 mb 0.00 in0.0 mm 0.00 in0.0 mm 0.11 in2.8 mm
02:34 PM 58.1°F14.5°C 49.2°F9.6°C 72% 1.6 mph NW2.6 kmh NW 6.0 mph9.7 kmh 30.13 in1020.3 mb 0.00 in0.0 mm 0.00 in0.0 mm 0.11 in2.8 mm
02:39 PM 58.2°F14.6°C 49.7°F9.8°C 73% 1.0 mph NE1.6 kmh NE 4.0 mph6.4 kmh 30.14 in1020.7 mb 0.00 in0.0 mm 0.00 in0.0 mm 0.11 in2.8 mm
02:44 PM 58.3°F14.6°C 49.8°F9.9°C 73% 1.7 mph N2.7 kmh N 5.0 mph8.0 kmh 30.14 in1020.7 mb 0.00 in0.0 mm 0.00 in0.0 mm 0.11 in2.8 mm
02:49 PM 58.2°F14.6°C 49.2°F9.6°C 72% 2.1 mph NNW3.4 kmh NNW 5.0 mph8.0 kmh 30.14 in1020.7 mb 0.00 in0.0 mm 0.00 in0.0 mm 0.11 in2.8 mm
02:54 PM 58.0°F14.4°C 49.1°F9.5°C 72% 1.0 mph ENE1.6 kmh ENE 5.0 mph8.0 kmh 30.14 in1020.7 mb 0.00 in0.0 mm 0.00 in0.0 mm 0.11 in2.8 mm
02:59 PM 58.1°F14.5°C 48.9°F9.4°C 71% Calm Calm 4.0 mph6.4 kmh 30.14 in1020.7 mb 0.00 in0.0 mm 0.00 in0.0 mm 0.11 in2.8 mm
03:04 PM 58.0°F14.4°C 48.8°F9.3°C 71% 1.0 mph NNW1.6 kmh NNW 4.0 mph6.4 kmh 30.13 in1020.3 mb 0.00 in0.0 mm 0.00 in0.0 mm 0.11 in2.8 mm
03:09 PM 58.0°F14.4°C 49.1°F9.5°C 72% Calm Calm 4.0 mph6.4 kmh 30.13 in1020.3 mb 0.00 in0.0 mm 0.00 in0.0 mm 0.11 in2.8 mm
03:14 PM 58.2°F14.6°C 49.7°F9.8°C 73% 1.0 mph NW1.6 kmh NW 1.0 mph1.6 kmh 30.13 in1020.3 mb 0.00 in0.0 mm 0.00 in0.0 mm 0.11 in2.8 mm
03:19 PM 58.1°F14.5°C 49.6°F9.8°C 73% Calm Calm 3.0 mph4.8 kmh 30.13 in1020.3 mb 0.00 in0.0 mm 0.00 in0.0 mm 0.11 in2.8 mm
03:24 PM 58.1°F14.5°C 49.6°F9.8°C 73% 2.3 mph NNW3.7 kmh NNW 3.0 mph4.8 kmh 30.14 in1020.7 mb 0.00 in0.0 mm 0.00 in0.0 mm 0.11 in2.8 mm
03:29 PM 58.0°F14.4°C 49.5°F9.7°C 73% 1.6 mph N2.6 kmh N 4.0 mph6.4 kmh 30.14 in1020.7 mb 0.00 in0.0 mm 0.00 in0.0 mm 0.11 in2.8 mm
03:34 PM 57.8°F14.3°C 48.9°F9.4°C 72% 1.4 mph N2.3 kmh N 5.0 mph8.0 kmh 30.14 in1020.7 mb 0.00 in0.0 mm 0.00 in0.0 mm 0.11 in2.8 mm
03:39 PM 57.6°F14.2°C 49.1°F9.5°C 73% 1.0 mph NW1.6 kmh NW 5.0 mph8.0 kmh 30.14 in1020.7 mb 0.00 in0.0 mm 0.00 in0.0 mm 0.11 in2.8 mm
03:44 PM 57.1°F13.9°C 47.9°F8.8°C 71% 2.2 mph NNW3.5 kmh NNW 8.0 mph12.9 kmh 30.14 in1020.7 mb 0.00 in0.0 mm 0.00 in0.0 mm 0.11 in2.8 mm
03:49 PM 56.8°F13.8°C 48.3°F9.1°C 73% 1.0 mph N1.6 kmh N 8.0 mph12.9 kmh 30.14 in1020.7 mb 0.00 in0.0 mm 0.00 in0.0 mm 0.11 in2.8 mm
03:54 PM 56.6°F13.7°C 48.2°F9.0°C 73% 3.2 mph NNW5.1 kmh NNW 8.0 mph12.9 kmh 30.14 in1020.7 mb 0.00 in0.0 mm 0.00 in0.0 mm 0.11 in2.8 mm
03:59 PM 56.4°F13.6°C 48.3°F9.1°C 74% 1.0 mph NW1.6 kmh NW 8.0 mph12.9 kmh 30.14 in1020.7 mb 0.00 in0.0 mm 0.00 in0.0 mm 0.11 in2.8 mm
04:04 PM 56.2°F13.4°C 48.0°F8.9°C 74% 1.7 mph N2.7 kmh N 6.0 mph9.7 kmh 30.14 in1020.7 mb 0.00 in0.0 mm 0.00 in0.0 mm 0.11 in2.8 mm
04:09 PM 56.0°F13.3°C 47.9°F8.8°C 74% 1.8 mph N2.9 kmh N 6.0 mph9.7 kmh 30.14 in1020.7 mb 0.00 in0.0 mm 0.00 in0.0 mm 0.11 in2.8 mm
04:14 PM 55.7°F13.2°C 48.0°F8.9°C 75% 1.7 mph N2.7 kmh N 5.0 mph8.0 kmh 30.15 in1021.0 mb 0.00 in0.0 mm 0.00 in0.0 mm 0.11 in2.8 mm
04:19 PM 55.5°F13.1°C 47.8°F8.8°C 75% 2.6 mph N4.2 kmh N 6.0 mph9.7 kmh 30.15 in1021.0 mb 0.00 in0.0 mm 0.00 in0.0 mm 0.11 in2.8 mm
04:24 PM 55.4°F13.0°C 47.7°F8.7°C 75% 1.7 mph N2.7 kmh N 6.0 mph9.7 kmh 30.14 in1020.7 mb 0.00 in0.0 mm 0.00 in0.0 mm 0.11 in2.8 mm
04:29 PM 55.2°F12.9°C 47.8°F8.8°C 76% 2.1 mph NNW3.4 kmh NNW 6.0 mph9.7 kmh 30.15 in1021.0 mb 0.00 in0.0 mm 0.00 in0.0 mm 0.11 in2.8 mm
04:34 PM 55.0°F12.8°C 47.7°F8.7°C 76% 1.7 mph NNW2.7 kmh NNW 6.0 mph9.7 kmh 30.15 in1021.0 mb 0.00 in0.0 mm 0.00 in0.0 mm 0.11 in2.8 mm
04:39 PM 54.9°F12.7°C 47.9°F8.8°C 77% 1.5 mph NW2.4 kmh NW 5.0 mph8.0 kmh 30.15 in1021.0 mb 0.00 in0.0 mm 0.00 in0.0 mm 0.11 in2.8 mm
04:44 PM 54.7°F12.6°C 47.7°F8.7°C 77% 1.7 mph NNW2.7 kmh NNW 5.0 mph8.0 kmh 30.15 in1021.0 mb 0.00 in0.0 mm 0.00 in0.0 mm 0.11 in2.8 mm
04:49 PM 54.6°F12.6°C 47.9°F8.8°C 78% 1.0 mph N1.6 kmh N 4.0 mph6.4 kmh 30.15 in1021.0 mb 0.00 in0.0 mm 0.00 in0.0 mm 0.11 in2.8 mm
04:54 PM 54.4°F12.4°C 47.7°F8.7°C 78% 1.5 mph N2.4 kmh N 4.0 mph6.4 kmh 30.15 in1021.0 mb 0.00 in0.0 mm 0.00 in0.0 mm 0.11 in2.8 mm
04:59 PM 54.3°F12.4°C 47.6°F8.7°C 78% 1.0 mph NW1.6 kmh NW 4.0 mph6.4 kmh 30.16 in1021.3 mb 0.00 in0.0 mm 0.00 in0.0 mm 0.11 in2.8 mm
05:04 PM 54.1°F12.3°C 47.5°F8.6°C 78% 1.6 mph NW2.6 kmh NW 4.0 mph6.4 kmh 30.15 in1021.0 mb 0.00 in0.0 mm 0.00 in0.0 mm 0.11 in2.8 mm
05:09 PM 54.0°F12.2°C 47.4°F8.6°C 78% 1.0 mph NE1.6 kmh NE 4.0 mph6.4 kmh 30.16 in1021.3 mb 0.00 in0.0 mm 0.00 in0.0 mm 0.11 in2.8 mm
05:14 PM 53.9°F12.2°C 47.3°F8.5°C 78% 1.0 mph NW1.6 kmh NW 4.0 mph6.4 kmh 30.16 in1021.3 mb 0.00 in0.0 mm 0.00 in0.0 mm 0.11 in2.8 mm
05:19 PM 53.9°F12.2°C 47.6°F8.7°C 79% 1.5 mph N2.4 kmh N 4.0 mph6.4 kmh 30.16 in1021.3 mb 0.00 in0.0 mm 0.00 in0.0 mm 0.11 in2.8 mm
05:24 PM 53.8°F12.1°C 47.5°F8.6°C 79% 1.4 mph NW2.3 kmh NW 4.0 mph6.4 kmh 30.17 in1021.7 mb 0.00 in0.0 mm 0.00 in0.0 mm 0.11 in2.8 mm
05:29 PM 53.7°F12.1°C 47.1°F8.4°C 78% 2.0 mph NNW3.2 kmh NNW 6.0 mph9.7 kmh 30.17 in1021.7 mb 0.00 in0.0 mm 0.00 in0.0 mm 0.11 in2.8 mm
05:34 PM 53.7°F12.1°C 47.1°F8.4°C 78% 1.2 mph NW1.9 kmh NW 6.0 mph9.7 kmh 30.17 in1021.7 mb 0.00 in0.0 mm 0.00 in0.0 mm 0.11 in2.8 mm
05:39 PM 53.6°F12.0°C 46.6°F8.1°C 77% 3.5 mph NW5.6 kmh NW 8.0 mph12.9 kmh 30.17 in1021.7 mb 0.00 in0.0 mm 0.00 in0.0 mm 0.11 in2.8 mm
05:44 PM 53.6°F12.0°C 46.6°F8.1°C 77% 1.5 mph NW2.4 kmh NW 8.0 mph12.9 kmh 30.17 in1021.7 mb 0.00 in0.0 mm 0.00 in0.0 mm 0.11 in2.8 mm
05:49 PM 53.5°F11.9°C 46.5°F8.1°C 77% 2.0 mph NW3.2 kmh NW 8.0 mph12.9 kmh 30.18 in1022.0 mb 0.00 in0.0 mm 0.00 in0.0 mm 0.11 in2.8 mm
05:54 PM 53.4°F11.9°C 46.4°F8.0°C 77% 1.5 mph NW2.4 kmh NW 8.0 mph12.9 kmh 30.18 in1022.0 mb 0.00 in0.0 mm 0.00 in0.0 mm 0.11 in2.8 mm
05:59 PM 53.3°F11.8°C 46.3°F7.9°C 77% 1.9 mph NW3.1 kmh NW 6.0 mph9.7 kmh 30.18 in1022.0 mb 0.00 in0.0 mm 0.00 in0.0 mm 0.11 in2.8 mm
06:04 PM 53.2°F11.8°C 45.9°F7.7°C 76% 1.7 mph NW2.7 kmh NW 6.0 mph9.7 kmh 30.18 in1022.0 mb 0.00 in0.0 mm 0.00 in0.0 mm 0.11 in2.8 mm
06:09 PM 53.0°F11.7°C 45.7°F7.6°C 76% 1.9 mph NNW3.1 kmh NNW 6.0 mph9.7 kmh 30.18 in1022.0 mb 0.00 in0.0 mm 0.00 in0.0 mm 0.11 in2.8 mm
06:14 PM 52.9°F11.6°C 45.6°F7.6°C 76% 1.3 mph NW2.1 kmh NW 7.0 mph11.3 kmh 30.19 in1022.4 mb 0.00 in0.0 mm 0.00 in0.0 mm 0.11 in2.8 mm
06:19 PM 52.7°F11.5°C 45.7°F7.6°C 77% 2.0 mph NW3.2 kmh NW 7.0 mph11.3 kmh 30.19 in1022.4 mb 0.00 in0.0 mm 0.00 in0.0 mm 0.11 in2.8 mm
06:24 PM 52.6°F11.4°C 45.9°F7.7°C 78% 1.7 mph NW2.7 kmh NW 7.0 mph11.3 kmh 30.19 in1022.4 mb 0.00 in0.0 mm 0.00 in0.0 mm 0.11 in2.8 mm
06:29 PM 52.4°F11.3°C 45.8°F7.7°C 78% 2.4 mph NNW3.9 kmh NNW 5.0 mph8.0 kmh 30.19 in1022.4 mb 0.00 in0.0 mm 0.00 in0.0 mm 0.11 in2.8 mm
06:34 PM 52.3°F11.3°C 46.0°F7.8°C 79% 1.8 mph NW2.9 kmh NW 5.0 mph8.0 kmh 30.19 in1022.4 mb 0.00 in0.0 mm 0.00 in0.0 mm 0.11 in2.8 mm
06:39 PM 52.0°F11.1°C 45.7°F7.6°C 79% 1.9 mph NW3.1 kmh NW 6.0 mph9.7 kmh 30.19 in1022.4 mb 0.00 in0.0 mm 0.00 in0.0 mm 0.11 in2.8 mm
06:44 PM 51.9°F11.1°C 45.6°F7.6°C 79% 2.5 mph NNW4.0 kmh NNW 6.0 mph9.7 kmh 30.19 in1022.4 mb 0.00 in0.0 mm 0.00 in0.0 mm 0.11 in2.8 mm
06:49 PM 51.7°F10.9°C 45.1°F7.3°C 78% 1.6 mph N2.6 kmh N 8.0 mph12.9 kmh 30.19 in1022.4 mb 0.00 in0.0 mm 0.00 in0.0 mm 0.11 in2.8 mm
06:54 PM 51.4°F10.8°C 44.8°F7.1°C 78% 1.6 mph NW2.6 kmh NW 8.0 mph12.9 kmh 30.19 in1022.4 mb 0.00 in0.0 mm 0.00 in0.0 mm 0.11 in2.8 mm
06:59 PM 51.2°F10.7°C 45.0°F7.2°C 79% 2.3 mph NW3.7 kmh NW 8.0 mph12.9 kmh 30.19 in1022.4 mb 0.00 in0.0 mm 0.00 in0.0 mm 0.11 in2.8 mm
07:04 PM 51.0°F10.6°C 44.8°F7.1°C 79% 2.3 mph NW3.7 kmh NW 8.0 mph12.9 kmh 30.20 in1022.7 mb 0.00 in0.0 mm 0.00 in0.0 mm 0.11 in2.8 mm
07:09 PM 50.8°F10.4°C 44.9°F7.2°C 80% 2.8 mph NW4.5 kmh NW 7.0 mph11.3 kmh 30.20 in1022.7 mb 0.00 in0.0 mm 0.00 in0.0 mm 0.11 in2.8 mm
07:14 PM 50.6°F10.3°C 44.7°F7.1°C 80% 1.0 mph NW1.6 kmh NW 7.0 mph11.3 kmh 30.20 in1022.7 mb 0.00 in0.0 mm 0.00 in0.0 mm 0.11 in2.8 mm
07:19 PM 50.3°F10.2°C 44.1°F6.7°C 79% 2.8 mph NNW4.5 kmh NNW 7.0 mph11.3 kmh 30.21 in1023.0 mb 0.00 in0.0 mm 0.00 in0.0 mm 0.11 in2.8 mm
07:24 PM 50.0°F10.0°C 43.8°F6.6°C 79% 2.1 mph NNW3.4 kmh NNW 7.0 mph11.3 kmh 30.20 in1022.7 mb 0.00 in0.0 mm 0.00 in0.0 mm 0.11 in2.8 mm
07:29 PM 49.8°F9.9°C 43.6°F6.4°C 79% 2.6 mph NW4.2 kmh NW 7.0 mph11.3 kmh 30.21 in1023.0 mb 0.00 in0.0 mm 0.00 in0.0 mm 0.11 in2.8 mm
07:34 PM 49.6°F9.8°C 43.7°F6.5°C 80% 1.4 mph NNW2.3 kmh NNW 7.0 mph11.3 kmh 30.21 in1023.0 mb 0.00 in0.0 mm 0.00 in0.0 mm 0.11 in2.8 mm
07:39 PM 49.4°F9.7°C 43.2°F6.2°C 79% 3.0 mph NNW4.8 kmh NNW 7.0 mph11.3 kmh 30.21 in1023.0 mb 0.00 in0.0 mm 0.00 in0.0 mm 0.11 in2.8 mm
07:44 PM 49.3°F9.6°C 43.1°F6.2°C 79% 1.7 mph NW2.7 kmh NW 7.0 mph11.3 kmh 30.21 in1023.0 mb 0.00 in0.0 mm 0.00 in0.0 mm 0.11 in2.8 mm
07:49 PM 49.1°F9.5°C 42.9°F6.1°C 79% 1.4 mph NNW2.3 kmh NNW 6.0 mph9.7 kmh 30.22 in1023.4 mb 0.00 in0.0 mm 0.00 in0.0 mm 0.11 in2.8 mm
07:54 PM 48.9°F9.4°C 42.7°F5.9°C 79% 1.3 mph NW2.1 kmh NW 6.0 mph9.7 kmh 30.22 in1023.4 mb 0.00 in0.0 mm 0.00 in0.0 mm 0.11 in2.8 mm
07:59 PM 48.8°F9.3°C 42.9°F6.1°C 80% 1.5 mph NNW2.4 kmh NNW 5.0 mph8.0 kmh 30.22 in1023.4 mb 0.00 in0.0 mm 0.00 in0.0 mm 0.11 in2.8 mm
08:04 PM 48.6°F9.2°C 42.7°F5.9°C 80% 1.4 mph NNW2.3 kmh NNW 3.0 mph4.8 kmh 30.22 in1023.4 mb 0.00 in0.0 mm 0.00 in0.0 mm 0.11 in2.8 mm
08:09 PM 48.4°F9.1°C 42.9°F6.1°C 81% 1.6 mph NNW2.6 kmh NNW 3.0 mph4.8 kmh 30.22 in1023.4 mb 0.00 in0.0 mm 0.00 in0.0 mm 0.11 in2.8 mm
08:14 PM 48.2°F9.0°C 42.7°F5.9°C 81% 1.3 mph NNE2.1 kmh NNE 3.0 mph4.8 kmh 30.23 in1023.7 mb 0.00 in0.0 mm 0.00 in0.0 mm 0.11 in2.8 mm
08:19 PM 47.9°F8.8°C 42.7°F5.9°C 82% 1.4 mph N2.3 kmh N 3.0 mph4.8 kmh 30.23 in1023.7 mb 0.00 in0.0 mm 0.00 in0.0 mm 0.11 in2.8 mm
08:24 PM 47.8°F8.8°C 42.6°F5.9°C 82% 1.8 mph NNW2.9 kmh NNW 5.0 mph8.0 kmh 30.23 in1023.7 mb 0.00 in0.0 mm 0.00 in0.0 mm 0.11 in2.8 mm
08:29 PM 47.6°F8.7°C 42.1°F5.6°C 81% 1.9 mph NNW3.1 kmh NNW 5.0 mph8.0 kmh 30.23 in1023.7 mb 0.00 in0.0 mm 0.00 in0.0 mm 0.11 in2.8 mm
08:34 PM 47.4°F8.6°C 41.9°F5.5°C 81% 1.9 mph NNW3.1 kmh NNW 5.0 mph8.0 kmh 30.23 in1023.7 mb 0.00 in0.0 mm 0.00 in0.0 mm 0.11 in2.8 mm
08:39 PM 47.3°F8.5°C 41.8°F5.4°C 81% 1.4 mph N2.3 kmh N 5.0 mph8.0 kmh 30.23 in1023.7 mb 0.00 in0.0 mm 0.00 in0.0 mm 0.11 in2.8 mm
08:44 PM 47.2°F8.4°C 41.4°F5.2°C 80% 1.3 mph N2.1 kmh N 8.0 mph12.9 kmh 30.23 in1023.7 mb 0.00 in0.0 mm 0.00 in0.0 mm 0.11 in2.8 mm
08:49 PM 47.0°F8.3°C 41.2°F5.1°C 80% 1.5 mph NNW2.4 kmh NNW 8.0 mph12.9 kmh 30.23 in1023.7 mb 0.00 in0.0 mm 0.00 in0.0 mm 0.11 in2.8 mm
08:54 PM 46.8°F8.2°C 41.0°F5.0°C 80% 1.5 mph NW2.4 kmh NW 8.0 mph12.9 kmh 30.23 in1023.7 mb 0.00 in0.0 mm 0.00 in0.0 mm 0.11 in2.8 mm
08:59 PM 46.7°F8.2°C 40.9°F4.9°C 80% 1.4 mph NNW2.3 kmh NNW 5.0 mph8.0 kmh 30.23 in1023.7 mb 0.00 in0.0 mm 0.00 in0.0 mm 0.11 in2.8 mm
09:04 PM 46.5°F8.1°C 41.0°F5.0°C 81% 1.3 mph NW2.1 kmh NW 5.0 mph8.0 kmh 30.23 in1023.7 mb 0.00 in0.0 mm 0.00 in0.0 mm 0.11 in2.8 mm
09:09 PM 46.4°F8.0°C 40.9°F4.9°C 81% 1.7 mph NNW2.7 kmh NNW 5.0 mph8.0 kmh 30.23 in1023.7 mb 0.00 in0.0 mm 0.00 in0.0 mm 0.11 in2.8 mm
09:14 PM 46.2°F7.9°C 41.0°F5.0°C 82% 1.1 mph N1.8 kmh N 5.0 mph8.0 kmh 30.23 in1023.7 mb 0.00 in0.0 mm 0.00 in0.0 mm 0.11 in2.8 mm
09:19 PM 46.1°F7.8°C 40.9°F4.9°C 82% Calm Calm 3.0 mph4.8 kmh 30.23 in1023.7 mb 0.00 in0.0 mm 0.00 in0.0 mm 0.11 in2.8 mm
09:24 PM 45.9°F7.7°C 40.7°F4.8°C 82% 1.5 mph N2.4 kmh N 4.0 mph6.4 kmh 30.23 in1023.7 mb 0.00 in0.0 mm 0.00 in0.0 mm 0.11 in2.8 mm
09:29 PM 45.8°F7.7°C 40.6°F4.8°C 82% 1.0 mph NW1.6 kmh NW 4.0 mph6.4 kmh 30.23 in1023.7 mb 0.00 in0.0 mm 0.00 in0.0 mm 0.11 in2.8 mm
09:34 PM 45.6°F7.6°C 40.4°F4.7°C 82% 1.4 mph N2.3 kmh N 4.0 mph6.4 kmh 30.23 in1023.7 mb 0.00 in0.0 mm 0.00 in0.0 mm 0.11 in2.8 mm
09:39 PM 45.4°F7.4°C 40.5°F4.7°C 83% 1.0 mph NNE1.6 kmh NNE 5.0 mph8.0 kmh 30.24 in1024.0 mb 0.00 in0.0 mm 0.00 in0.0 mm 0.11 in2.8 mm
09:44 PM 45.2°F7.3°C 40.3°F4.6°C 83% 1.9 mph N3.1 kmh N 5.0 mph8.0 kmh 30.23 in1023.7 mb 0.00 in0.0 mm 0.00 in0.0 mm 0.11 in2.8 mm
09:49 PM 45.0°F7.2°C 40.1°F4.5°C 83% 1.4 mph NNW2.3 kmh NNW 5.0 mph8.0 kmh 30.23 in1023.7 mb 0.00 in0.0 mm 0.00 in0.0 mm 0.11 in2.8 mm
09:54 PM 44.8°F7.1°C 40.0°F4.4°C 83% 1.7 mph N2.7 kmh N 5.0 mph8.0 kmh 30.24 in1024.0 mb 0.00 in0.0 mm 0.00 in0.0 mm 0.11 in2.8 mm
09:59 PM 44.7°F7.1°C 39.9°F4.4°C 83% 1.3 mph NNE2.1 kmh NNE 5.0 mph8.0 kmh 30.24 in1024.0 mb 0.00 in0.0 mm 0.00 in0.0 mm 0.11 in2.8 mm
10:04 PM 44.5°F6.9°C 39.7°F4.3°C 83% 1.3 mph N2.1 kmh N 5.0 mph8.0 kmh 30.24 in1024.0 mb 0.00 in0.0 mm 0.00 in0.0 mm 0.11 in2.8 mm
10:09 PM 44.3°F6.8°C 39.5°F4.2°C 83% 1.0 mph N1.6 kmh N 5.0 mph8.0 kmh 30.24 in1024.0 mb 0.00 in0.0 mm 0.00 in0.0 mm 0.11 in2.8 mm
10:14 PM 44.1°F6.7°C 39.3°F4.1°C 83% 1.4 mph N2.3 kmh N 3.0 mph4.8 kmh 30.24 in1024.0 mb 0.00 in0.0 mm 0.00 in0.0 mm 0.11 in2.8 mm
10:19 PM 44.1°F6.7°C 39.6°F4.2°C 84% 1.4 mph NW2.3 kmh NW 5.0 mph8.0 kmh 30.24 in1024.0 mb 0.00 in0.0 mm 0.00 in0.0 mm 0.11 in2.8 mm
10:24 PM 43.9°F6.6°C 39.4°F4.1°C 84% 1.0 mph NNW1.6 kmh NNW 5.0 mph8.0 kmh 30.24 in1024.0 mb 0.00 in0.0 mm 0.00 in0.0 mm 0.11 in2.8 mm
10:29 PM 43.8°F6.6°C 39.3°F4.1°C 84% Calm Calm 5.0 mph8.0 kmh 30.24 in1024.0 mb 0.00 in0.0 mm 0.00 in0.0 mm 0.11 in2.8 mm
10:34 PM 43.6°F6.4°C 39.1°F3.9°C 84% 1.3 mph NNE2.1 kmh NNE 4.0 mph6.4 kmh 30.24 in1024.0 mb 0.00 in0.0 mm 0.00 in0.0 mm 0.11 in2.8 mm
10:40 PM 43.5°F6.4°C 39.3°F4.1°C 85% 1.0 mph NE1.6 kmh NE 3.0 mph4.8 kmh 30.25 in1024.4 mb 0.00 in0.0 mm 0.00 in0.0 mm 0.11 in2.8 mm
10:44 PM 43.3°F6.3°C 39.1°F3.9°C 85% 1.0 mph N1.6 kmh N 2.0 mph3.2 kmh 30.24 in1024.0 mb 0.00 in0.0 mm 0.00 in0.0 mm 0.11 in2.8 mm
10:50 PM 43.2°F6.2°C 39.0°F3.9°C 85% 1.0 mph NNW1.6 kmh NNW 2.0 mph3.2 kmh 30.24 in1024.0 mb 0.00 in0.0 mm 0.00 in0.0 mm 0.11 in2.8 mm
10:55 PM 43.0°F6.1°C 38.8°F3.8°C 85% 1.2 mph NW1.9 kmh NW 2.0 mph3.2 kmh 30.25 in1024.4 mb 0.00 in0.0 mm 0.00 in0.0 mm 0.11 in2.8 mm
10:59 PM 42.9°F6.1°C 38.7°F3.7°C 85% Calm Calm 2.0 mph3.2 kmh 30.25 in1024.4 mb 0.00 in0.0 mm 0.00 in0.0 mm 0.11 in2.8 mm
11:05 PM 42.7°F5.9°C 38.8°F3.8°C 86% 1.0 mph N1.6 kmh N 2.0 mph3.2 kmh 30.25 in1024.4 mb 0.00 in0.0 mm 0.00 in0.0 mm 0.11 in2.8 mm
11:10 PM 42.6°F5.9°C 38.7°F3.7°C 86% 1.0 mph NW1.6 kmh NW 2.0 mph3.2 kmh 30.25 in1024.4 mb 0.00 in0.0 mm 0.00 in0.0 mm 0.11 in2.8 mm
11:15 PM 42.5°F5.8°C 38.6°F3.7°C 86% 1.1 mph NW1.8 kmh NW 2.0 mph3.2 kmh 30.25 in1024.4 mb 0.00 in0.0 mm 0.00 in0.0 mm 0.11 in2.8 mm
11:20 PM 42.5°F5.8°C 38.6°F3.7°C 86% 1.6 mph NE2.6 kmh NE 3.0 mph4.8 kmh 30.25 in1024.4 mb 0.00 in0.0 mm 0.00 in0.0 mm 0.11 in2.8 mm
11:25 PM 42.4°F5.8°C 38.5°F3.6°C 86% Calm Calm 3.0 mph4.8 kmh 30.24 in1024.0 mb 0.00 in0.0 mm 0.00 in0.0 mm 0.11 in2.8 mm
11:30 PM 42.3°F5.7°C 38.7°F3.7°C 87% 1.0 mph NNW1.6 kmh NNW 3.0 mph4.8 kmh 30.24 in1024.0 mb 0.00 in0.0 mm 0.00 in0.0 mm 0.11 in2.8 mm
11:35 PM 42.2°F5.7°C 38.6°F3.7°C 87% Calm Calm 3.0 mph4.8 kmh 30.24 in1024.0 mb 0.00 in0.0 mm 0.00 in0.0 mm 0.11 in2.8 mm
11:40 PM 41.9°F5.5°C 38.3°F3.5°C 87% 1.3 mph NE2.1 kmh NE 2.0 mph3.2 kmh 30.25 in1024.4 mb 0.00 in0.0 mm 0.00 in0.0 mm 0.11 in2.8 mm
11:45 PM 41.8°F5.4°C 38.2°F3.4°C 87% 1.0 mph N1.6 kmh N 2.0 mph3.2 kmh 30.25 in1024.4 mb 0.00 in0.0 mm 0.00 in0.0 mm 0.11 in2.8 mm
11:50 PM 41.6°F5.3°C 38.3°F3.5°C 88% 1.0 mph NNE1.6 kmh NNE 2.0 mph3.2 kmh 30.24 in1024.0 mb 0.00 in0.0 mm 0.00 in0.0 mm 0.11 in2.8 mm
11:55 PM 41.5°F5.3°C 38.2°F3.4°C 88% 1.2 mph NE1.9 kmh NE 2.0 mph3.2 kmh 30.24 in1024.0 mb 0.00 in0.0 mm 0.00 in0.0 mm 0.11 in2.8 mm